Scott City, MO

2:45 PM CDT on July 30, 2014 (GMT -0500)
Cape Girardeau Regional (KCGI) Elev 341 ft | 37.23 °N, 89.57 °W | Change Station

Current weather conditions updated 52 minutes ago

Overcast
Overcast
76 °F
Feels Like 76 °F
N
6
Wind Variable Wind from SW

Today is forecast to be nearly the same temperature as yesterday.

Today
High -- | Low -- °F
--% Chance of Precip.
Yesterday
High -- | Low -- °F
Precip. -- in
6:01 AM 8:07 PM
Waxing Crescent, 13% visible
Pressure 30.10 in
Visibility 10.0 miles
Clouds Mostly Cloudy 5500 ft
Mostly Cloudy 6500 ft
Overcast 9000 ft
Dew Point 59 °F
Humidity 56%
Rainfall 0.00 in
Snow Depth Not available.
UV 3 out of 12
Pollen 6.70 out of 12
Air Quality Not available.
Flu Activity Not available.
METAR KCGI 301853Z 22005KT 10SM BKN055 BKN065 OVC090 24/15 A3010 RMK AO2 SLP191 T02440150

More Conditions Fewer Conditions

Pressure 30.10 in
Visibility 10.0 miles
Clouds Mostly Cloudy 5500 ft
Mostly Cloudy 6500 ft
Overcast 9000 ft
Dew Point 59 °F
Humidity 56%
Rainfall 0.00 in
Snow Depth Not available.
UV 3 out of 12
Pollen 6.70 out of 12
Air Quality Not available.
Flu Activity Not available.
METAR KCGI 301853Z 22005KT 10SM BKN055 BKN065 OVC090 24/15 A3010 RMK AO2 SLP191 T02440150

More Conditions Fewer Conditions

10-Day Weather Forecast

Almanac

Astronomy

Jul. 30, 2014 Rise Set
Actual Time 6:01 AM CDT 8:07 PM CDT
Civil Twilight 5:32 AM CDT 8:36 PM CDT
Nautical Twilight 4:56 AM CDT 9:11 PM CDT
Astronomical Twilight 4:18 AM CDT 9:49 PM CDT
Moon 9:27 AM CDT 9:56 PM CDT
Length of Visible Light 15h 04m
Length of Day
14h 06m
Tomorrow will be 1m 44s shorter.
Waxing Crescent, 13% of the Moon is Illuminated
Today
Waxing Crescent
Aug 3
First Quarter
Aug 10
Full
Aug 17
Last Quarter
Aug 25
New

Today's Extremes

State Highs State Lows

Community

WunderPhotos

Upload Photos

1,739,168 photos uploaded!

WunderBlogs® & News

Nearby

Snow Depth

Station Depth Elevation
No new snow has been reported.

Earthquake Activity

City Distance Mag. Time & Date
No recent earthquake activity has been reported nearby.
Minimum magnitude displayed is 2.5.

Coastal Water Temperatures

Place Temperature
No Stations Reporting

Nearby Weather Stations

Station Location Temp. Heat Index Dew Point Humidity Wind Precip. Elev Updated Type
Timber Creek, Cape Girardeau, MO 75.7 °F 78 °F 62 °F 62% NW  at  3.0 mph 0.00 in / hr 440 ft 2:45 PM CDT Normal
MesoWest McClure (IL 3 @ IL 146) , McClure, IL 75 °F 77 °F 60 °F 60% WSW  at  2 mph 0.00 in / hr 347 ft 1:40 PM CDT MADIS
WeatherTop, Cape Girardeau, MO 75.1 °F 77 °F 66 °F 72% SW  at  1.0 mph 0.00 in / hr 492 ft 2:42 PM CDT Normal
MesoWest WARE1 , Cypress, IL 76 °F 74 °F - - North  at  - 0.00 in / hr 351 ft 1:20 PM CDT MADIS
Sikeston Ridge, Sikeston, MO 78.4 °F 80 °F 63 °F 60% SW  at  0.0 mph 0.00 in / hr 326 ft 2:36 PM CDT Normal

Show More Stations Show Fewer Stations